Terminal Aerodrome Forecast
Issued by NWS Caribou, ME

Home | Current Version | Previous Version | Text Only | Print | Product List | Glossary On
Versions: 1 2 3 4 5 6 7 8 9 10 11 12 13 14 15 16 17 18
477
FTUS41 KCAR 010536
TAFBGR
TAF
KBGR 010536Z 0106/0206 VRB03KT P6SM SCT200
     FM011800 18008KT P6SM BKN080
     FM012100 18008KT P6SM OVC040
     FM020000 18006KT P6SM VCSH OVC040
     FM020300 15006KT P6SM VCSH OVC030=

USA.gov is the U.S. government's official web portal to all federal, state and local government web resources and services.